sensor_id;sensor_type;location;lat;lon;timestamp;pressure;altitude;pressure_sealevel;temperature;humidity
40285;BME280;25997;50.214;19.354;2023-07-31T00:01:18;97401.97;;;16.33;61.94
40285;BME280;25997;50.214;19.354;2023-07-31T00:04:21;97394.91;;;16.34;61.71
40285;BME280;25997;50.214;19.354;2023-07-31T00:07:23;97393.13;;;16.36;62.07
40285;BME280;25997;50.214;19.354;2023-07-31T00:10:26;97401.97;;;16.35;62.10
40285;BME280;25997;50.214;19.354;2023-07-31T00:13:28;97410.91;;;16.22;62.46
40285;BME280;25997;50.214;19.354;2023-07-31T00:16:32;97405.63;;;16.17;64.16
40285;BME280;25997;50.214;19.354;2023-07-31T00:19:34;97406.47;;;16.18;63.83
40285;BME280;25997;50.214;19.354;2023-07-31T00:22:37;97416.19;;;16.22;63.83
40285;BME280;25997;50.214;19.354;2023-07-31T00:25:39;97416.16;;;16.26;63.78
40285;BME280;25997;50.214;19.354;2023-07-31T00:28:42;97409.03;;;16.34;63.58
40285;BME280;25997;50.214;19.354;2023-07-31T00:31:45;97412.53;;;16.41;63.25
40285;BME280;25997;50.214;19.354;2023-07-31T00:34:48;97411.66;;;16.39;63.76
40285;BME280;25997;50.214;19.354;2023-07-31T00:37:50;97417.84;;;16.36;64.36
40285;BME280;25997;50.214;19.354;2023-07-31T00:40:53;97418.78;;;16.29;64.27
40285;BME280;25997;50.214;19.354;2023-07-31T00:43:55;97425.94;;;16.17;64.90
40285;BME280;25997;50.214;19.354;2023-07-31T00:46:59;97427.69;;;16.16;64.67
40285;BME280;25997;50.214;19.354;2023-07-31T00:50:02;97425.97;;;16.12;64.73
40285;BME280;25997;50.214;19.354;2023-07-31T00:53:04;97410.97;;;16.13;64.88
40285;BME280;25997;50.214;19.354;2023-07-31T00:56:08;97414.41;;;16.21;64.09
40285;BME280;25997;50.214;19.354;2023-07-31T00:59:10;97415.31;;;16.18;64.40
40285;BME280;25997;50.214;19.354;2023-07-31T01:02:14;97414.50;;;16.07;65.28
40285;BME280;25997;50.214;19.354;2023-07-31T01:05:17;97420.72;;;16.03;64.67
40285;BME280;25997;50.214;19.354;2023-07-31T01:08:27;97423.34;;;16.03;64.33
40285;BME280;25997;50.214;19.354;2023-07-31T01:11:33;97427.81;;;16.00;65.97
40285;BME280;25997;50.214;19.354;2023-07-31T01:14:36;97427.84;;;15.92;64.51
40285;BME280;25997;50.214;19.354;2023-07-31T01:17:41;97430.50;;;15.88;65.14
40285;BME280;25997;50.214;19.354;2023-07-31T01:20:46;97428.75;;;15.85;65.24
40285;BME280;25997;50.214;19.354;2023-07-31T01:24:20;97425.19;;;15.89;65.78
40285;BME280;25997;50.214;19.354;2023-07-31T01:27:28;97436.66;;;15.90;64.99
40285;BME280;25997;50.214;19.354;2023-07-31T01:30:34;97437.56;;;15.89;65.50
40285;BME280;25997;50.214;19.354;2023-07-31T01:33:39;97441.06;;;15.89;64.82
40285;BME280;25997;50.214;19.354;2023-07-31T01:36:42;97429.63;;;15.87;65.24
40285;BME280;25997;50.214;19.354;2023-07-31T01:39:44;97433.13;;;15.89;65.00
40285;BME280;25997;50.214;19.354;2023-07-31T01:42:48;97440.19;;;15.93;64.64
40285;BME280;25997;50.214;19.354;2023-07-31T01:45:50;97450.78;;;15.95;64.48
40285;BME280;25997;50.214;19.354;2023-07-31T01:48:53;97442.84;;;15.93;64.59
40285;BME280;25997;50.214;19.354;2023-07-31T01:51:55;97448.16;;;15.89;64.99
40285;BME280;25997;50.214;19.354;2023-07-31T01:54:58;97450.81;;;15.87;64.88
40285;BME280;25997;50.214;19.354;2023-07-31T01:58:01;97447.34;;;15.77;65.17
40285;BME280;25997;50.214;19.354;2023-07-31T02:01:04;97457.88;;;15.81;64.70
40285;BME280;25997;50.214;19.354;2023-07-31T02:04:09;97454.41;;;15.72;64.75
40285;BME280;25997;50.214;19.354;2023-07-31T02:07:11;97457.06;;;15.71;64.55
40285;BME280;25997;50.214;19.354;2023-07-31T02:10:14;97468.50;;;15.71;64.32
40285;BME280;25997;50.214;19.354;2023-07-31T02:13:18;97466.78;;;15.66;64.68
40285;BME280;25997;50.214;19.354;2023-07-31T02:16:20;97466.75;;;15.69;64.32
40285;BME280;25997;50.214;19.354;2023-07-31T02:19:23;97474.69;;;15.61;64.53
40285;BME280;25997;50.214;19.354;2023-07-31T02:22:25;97481.78;;;15.59;64.74
40285;BME280;25997;50.214;19.354;2023-07-31T02:25:27;97493.25;;;15.55;65.00
40285;BME280;25997;50.214;19.354;2023-07-31T02:28:31;97491.47;;;15.57;64.91
40285;BME280;25997;50.214;19.354;2023-07-31T02:31:34;97491.47;;;15.47;65.45
40285;BME280;25997;50.214;19.354;2023-07-31T02:34:36;97491.47;;;15.57;64.89
40285;BME280;25997;50.214;19.354;2023-07-31T02:37:38;97487.03;;;15.71;64.62
40285;BME280;25997;50.214;19.354;2023-07-31T02:40:41;97487.03;;;15.77;64.66
40285;BME280;25997;50.214;19.354;2023-07-31T02:43:45;97494.06;;;15.88;64.31
40285;BME280;25997;50.214;19.354;2023-07-31T02:46:47;97492.25;;;15.97;63.97
40285;BME280;25997;50.214;19.354;2023-07-31T02:49:50;97488.69;;;16.04;63.74
40285;BME280;25997;50.214;19.354;2023-07-31T02:52:52;97494.84;;;16.12;63.79
40285;BME280;25997;50.214;19.354;2023-07-31T02:55:55;97487.72;;;16.20;63.28
40285;BME280;25997;50.214;19.354;2023-07-31T02:58:58;97488.56;;;16.30;63.08
40285;BME280;25997;50.214;19.354;2023-07-31T03:02:01;97495.56;;;16.38;63.31
40285;BME280;25997;50.214;19.354;2023-07-31T03:05:04;97496.44;;;16.42;62.84
40285;BME280;25997;50.214;19.354;2023-07-31T03:08:06;97498.22;;;16.43;63.23
40285;BME280;25997;50.214;19.354;2023-07-31T03:11:09;97498.19;;;16.47;62.87
40285;BME280;25997;50.214;19.354;2023-07-31T03:14:13;97501.72;;;16.53;62.88
40285;BME280;25997;50.214;19.354;2023-07-31T03:17:15;97508.72;;;16.58;63.07
40285;BME280;25997;50.214;19.354;2023-07-31T03:20:18;97515.78;;;16.61;62.62
40285;BME280;25997;50.214;19.354;2023-07-31T03:23:20;97520.19;;;16.60;62.69
40285;BME280;25997;50.214;19.354;2023-07-31T03:26:22;97519.31;;;16.63;62.72
40285;BME280;25997;50.214;19.354;2023-07-31T03:29:26;97515.81;;;16.58;62.95
40285;BME280;25997;50.214;19.354;2023-07-31T03:32:29;97522.06;;;16.51;63.18
40285;BME280;25997;50.214;19.354;2023-07-31T03:35:31;97530.91;;;16.45;63.00
40285;BME280;25997;50.214;19.354;2023-07-31T03:38:34;97535.31;;;16.40;63.07
40285;BME280;25997;50.214;19.354;2023-07-31T03:41:36;97530.91;;;16.36;63.19
40285;BME280;25997;50.214;19.354;2023-07-31T03:44:40;97538.88;;;16.31;63.49
40285;BME280;25997;50.214;19.354;2023-07-31T03:47:45;97531.88;;;16.24;63.54
40285;BME280;25997;50.214;19.354;2023-07-31T03:50:47;97531.81;;;16.32;62.98
40285;BME280;25997;50.214;19.354;2023-07-31T03:53:51;97528.31;;;16.30;63.13
40285;BME280;25997;50.214;19.354;2023-07-31T03:56:53;97520.34;;;16.33;63.40
40285;BME280;25997;50.214;19.354;2023-07-31T03:59:57;97528.28;;;16.33;62.92
40285;BME280;25997;50.214;19.354;2023-07-31T04:03:00;97527.38;;;16.41;62.86
40285;BME280;25997;50.214;19.354;2023-07-31T04:06:02;97529.16;;;16.35;63.28
40285;BME280;25997;50.214;19.354;2023-07-31T04:09:05;97530.06;;;16.32;63.38
40285;BME280;25997;50.214;19.354;2023-07-31T04:12:07;97529.13;;;16.45;63.09
40285;BME280;25997;50.214;19.354;2023-07-31T04:15:11;97537.94;;;16.51;62.73
40285;BME280;25997;50.214;19.354;2023-07-31T04:18:14;97537.97;;;16.38;63.22
40285;BME280;25997;50.214;19.354;2023-07-31T04:21:16;97544.16;;;16.43;62.72
40285;BME280;25997;50.214;19.354;2023-07-31T04:24:18;97536.19;;;16.40;62.69
40285;BME280;25997;50.214;19.354;2023-07-31T04:27:25;97536.25;;;16.30;62.86
40285;BME280;25997;50.214;19.354;2023-07-31T04:30:29;97543.25;;;16.47;62.66
40285;BME280;25997;50.214;19.354;2023-07-31T04:33:31;97538.78;;;16.59;61.90
40285;BME280;25997;50.214;19.354;2023-07-31T04:36:34;97537.00;;;16.62;61.71
40285;BME280;25997;50.214;19.354;2023-07-31T04:39:36;97542.09;;;16.92;61.19
40285;BME280;25997;50.214;19.354;2023-07-31T04:42:38;97537.47;;;17.22;60.87
40285;BME280;25997;50.214;19.354;2023-07-31T04:45:45;97532.00;;;17.40;59.46
40285;BME280;25997;50.214;19.354;2023-07-31T04:48:48;97540.72;;;17.54;59.00
40285;BME280;25997;50.214;19.354;2023-07-31T04:51:51;97540.66;;;17.58;58.98
40285;BME280;25997;50.214;19.354;2023-07-31T04:54:53;97536.28;;;17.54;58.30
40285;BME280;25997;50.214;19.354;2023-07-31T04:57:55;97543.50;;;17.42;58.67
40285;BME280;25997;50.214;19.354;2023-07-31T05:00:59;97552.47;;;17.29;58.59
40285;BME280;25997;50.214;19.354;2023-07-31T05:04:01;97548.09;;;17.14;59.23
40285;BME280;25997;50.214;19.354;2023-07-31T05:07:04;97552.50;;;17.23;59.26
40285;BME280;25997;50.214;19.354;2023-07-31T05:10:07;97546.25;;;17.28;58.90
40285;BME280;25997;50.214;19.354;2023-07-31T05:13:10;97558.53;;;17.44;58.62
40285;BME280;25997;50.214;19.354;2023-07-31T05:16:13;97564.72;;;17.43;58.36
40285;BME280;25997;50.214;19.354;2023-07-31T05:19:16;97557.53;;;17.54;57.87
40285;BME280;25997;50.214;19.354;2023-07-31T05:22:18;97565.47;;;17.56;57.75
40285;BME280;25997;50.214;19.354;2023-07-31T05:25:21;97557.66;;;17.39;57.35
40285;BME280;25997;50.214;19.354;2023-07-31T05:28:23;97571.13;;;17.19;58.14
40285;BME280;25997;50.214;19.354;2023-07-31T05:31:27;97571.00;;;17.33;58.00
40285;BME280;25997;50.214;19.354;2023-07-31T05:34:29;97566.44;;;17.47;57.94
40285;BME280;25997;50.214;19.354;2023-07-31T05:37:32;97573.44;;;17.57;57.96
40285;BME280;25997;50.214;19.354;2023-07-31T05:40:34;97563.53;;;17.71;57.81
40285;BME280;25997;50.214;19.354;2023-07-31T05:43:36;97560.81;;;17.82;57.04
40285;BME280;25997;50.214;19.354;2023-07-31T05:46:40;97572.19;;;17.98;56.86
40285;BME280;25997;50.214;19.354;2023-07-31T05:49:43;97569.47;;;18.02;56.76
40285;BME280;25997;50.214;19.354;2023-07-31T05:52:45;97564.16;;;18.02;56.58
40285;BME280;25997;50.214;19.354;2023-07-31T05:55:48;97569.38;;;18.10;56.96
40285;BME280;25997;50.214;19.354;2023-07-31T05:58:50;97576.28;;;18.26;56.37
40285;BME280;25997;50.214;19.354;2023-07-31T06:01:54;97577.94;;;18.34;56.28
40285;BME280;25997;50.214;19.354;2023-07-31T06:04:56;97577.75;;;18.48;56.04
40285;BME280;25997;50.214;19.354;2023-07-31T06:07:59;97582.28;;;18.41;56.03
40285;BME280;25997;50.214;19.354;2023-07-31T06:11:01;97578.81;;;18.35;56.41
40285;BME280;25997;50.214;19.354;2023-07-31T06:14:04;97584.91;;;18.44;55.75
40285;BME280;25997;50.214;19.354;2023-07-31T06:17:08;97584.63;;;18.67;55.73
40285;BME280;25997;50.214;19.354;2023-07-31T06:20:11;97583.72;;;18.70;54.59
40285;BME280;25997;50.214;19.354;2023-07-31T06:23:13;97580.38;;;18.52;54.67
40285;BME280;25997;50.214;19.354;2023-07-31T06:26:15;97574.16;;;18.52;55.26
40285;BME280;25997;50.214;19.354;2023-07-31T06:29:18;97574.94;;;18.60;54.68
40285;BME280;25997;50.214;19.354;2023-07-31T06:32:22;97579.31;;;18.69;54.60
40285;BME280;25997;50.214;19.354;2023-07-31T06:35:24;97582.91;;;18.61;54.55
40285;BME280;25997;50.214;19.354;2023-07-31T06:38:26;97579.38;;;18.61;54.46
40285;BME280;25997;50.214;19.354;2023-07-31T06:41:29;97574.91;;;18.63;54.45
40285;BME280;25997;50.214;19.354;2023-07-31T06:44:31;97581.56;;;18.27;54.56
40285;BME280;25997;50.214;19.354;2023-07-31T06:47:35;97575.34;;;18.28;54.84
40285;BME280;25997;50.214;19.354;2023-07-31T06:50:37;97577.97;;;18.31;55.07
40285;BME280;25997;50.214;19.354;2023-07-31T06:53:40;97583.19;;;18.39;54.60
40285;BME280;25997;50.214;19.354;2023-07-31T06:56:42;97583.84;;;18.56;53.57
40285;BME280;25997;50.214;19.354;2023-07-31T06:59:45;97577.53;;;18.68;54.14
40285;BME280;25997;50.214;19.354;2023-07-31T07:02:49;97575.78;;;18.65;53.40
40285;BME280;25997;50.214;19.354;2023-07-31T07:05:52;97585.53;;;18.63;53.53
40285;BME280;25997;50.214;19.354;2023-07-31T07:08:54;97578.16;;;18.86;53.36
40285;BME280;25997;50.214;19.354;2023-07-31T07:11:56;97582.50;;;18.93;53.17
40285;BME280;25997;50.214;19.354;2023-07-31T07:14:59;97583.56;;;18.82;52.46
40285;BME280;25997;50.214;19.354;2023-07-31T07:18:03;97583.72;;;18.68;52.60
40285;BME280;25997;50.214;19.354;2023-07-31T07:21:05;97587.13;;;18.79;52.44
40285;BME280;25997;50.214;19.354;2023-07-31T07:24:07;97573.22;;;19.18;52.13
40285;BME280;25997;50.214;19.354;2023-07-31T07:27:10;97575.59;;;19.40;51.98
40285;BME280;25997;50.214;19.354;2023-07-31T07:30:12;97578.22;;;19.41;51.55
40285;BME280;25997;50.214;19.354;2023-07-31T07:33:16;97576.50;;;19.37;51.11
40285;BME280;25997;50.214;19.354;2023-07-31T07:36:19;97581.44;;;19.03;50.08
40285;BME280;25997;50.214;19.354;2023-07-31T07:39:21;97585.06;;;18.99;50.52
40285;BME280;25997;50.214;19.354;2023-07-31T07:42:24;97576.41;;;19.43;49.92
40285;BME280;25997;50.214;19.354;2023-07-31T07:45:26;97574.88;;;19.79;49.34
40285;BME280;25997;50.214;19.354;2023-07-31T07:48:30;97580.41;;;19.67;47.78
40285;BME280;25997;50.214;19.354;2023-07-31T07:51:33;97582.31;;;19.62;48.62
40285;BME280;25997;50.214;19.354;2023-07-31T07:54:35;97588.13;;;19.83;48.16
40285;BME280;25997;50.214;19.354;2023-07-31T07:57:37;97583.47;;;19.94;48.19
40285;BME280;25997;50.214;19.354;2023-07-31T08:00:40;97579.81;;;20.01;48.51
40285;BME280;25997;50.214;19.354;2023-07-31T08:03:44;97577.09;;;20.04;48.67
40285;BME280;25997;50.214;19.354;2023-07-31T08:06:46;97577.03;;;20.52;48.71
40285;BME280;25997;50.214;19.354;2023-07-31T08:09:49;97581.31;;;20.59;48.26
40285;BME280;25997;50.214;19.354;2023-07-31T08:12:51;97583.47;;;20.40;48.61
40285;BME280;25997;50.214;19.354;2023-07-31T08:15:53;97587.56;;;20.59;48.84
40285;BME280;25997;50.214;19.354;2023-07-31T08:18:57;97585.63;;;20.66;48.41
40285;BME280;25997;50.214;19.354;2023-07-31T08:22:00;97589.13;;;21.09;47.58
40285;BME280;25997;50.214;19.354;2023-07-31T08:25:02;97608.78;;;21.45;46.04
40285;BME280;25997;50.214;19.354;2023-07-31T08:28:05;97596.78;;;21.24;45.80
40285;BME280;25997;50.214;19.354;2023-07-31T08:31:08;97591.34;;;21.27;45.89
40285;BME280;25997;50.214;19.354;2023-07-31T08:34:13;97590.88;;;21.10;45.54
40285;BME280;25997;50.214;19.354;2023-07-31T08:37:15;97594.97;;;21.25;45.81
40285;BME280;25997;50.214;19.354;2023-07-31T08:40:18;97592.47;;;21.19;45.74
40285;BME280;25997;50.214;19.354;2023-07-31T08:43:20;97598.13;;;21.05;45.06
40285;BME280;25997;50.214;19.354;2023-07-31T08:46:24;97590.56;;;21.24;45.64
40285;BME280;25997;50.214;19.354;2023-07-31T08:49:29;97591.94;;;21.41;44.74
40285;BME280;25997;50.214;19.354;2023-07-31T08:52:32;97596.75;;;21.63;45.06
40285;BME280;25997;50.214;19.354;2023-07-31T08:55:35;97599.25;;;21.70;44.62
40285;BME280;25997;50.214;19.354;2023-07-31T08:58:38;97593.22;;;21.97;43.85
40285;BME280;25997;50.214;19.354;2023-07-31T09:01:44;97596.72;;;21.64;43.79
40285;BME280;25997;50.214;19.354;2023-07-31T09:04:50;97589.44;;;21.34;43.55
40285;BME280;25997;50.214;19.354;2023-07-31T09:07:53;97597.34;;;21.40;44.79
40285;BME280;25997;50.214;19.354;2023-07-31T09:10:59;97596.59;;;21.32;43.91
40285;BME280;25997;50.214;19.354;2023-07-31T09:14:02;97595.91;;;21.62;44.26
40285;BME280;25997;50.214;19.354;2023-07-31T09:17:09;97590.22;;;21.74;43.97
40285;BME280;25997;50.214;19.354;2023-07-31T09:20:15;97591.00;;;21.79;43.40
40285;BME280;25997;50.214;19.354;2023-07-31T09:23:18;97577.75;;;21.75;43.43
40285;BME280;25997;50.214;19.354;2023-07-31T09:26:30;97584.22;;;21.66;42.84
40285;BME280;25997;50.214;19.354;2023-07-31T09:29:32;97589.94;;;21.85;41.97
40285;BME280;25997;50.214;19.354;2023-07-31T09:32:35;97581.59;;;21.98;41.95
40285;BME280;25997;50.214;19.354;2023-07-31T09:35:40;97585.47;;;22.19;41.38
40285;BME280;25997;50.214;19.354;2023-07-31T09:38:43;97586.25;;;22.23;41.55
40285;BME280;25997;50.214;19.354;2023-07-31T09:41:48;97579.50;;;22.42;41.01
40285;BME280;25997;50.214;19.354;2023-07-31T09:45:07;97578.03;;;22.30;39.69
40285;BME280;25997;50.214;19.354;2023-07-31T09:48:10;97584.25;;;22.00;40.77
40285;BME280;25997;50.214;19.354;2023-07-31T09:51:14;97572.28;;;22.13;40.77
40285;BME280;25997;50.214;19.354;2023-07-31T09:54:17;97563.91;;;22.86;40.87
40285;BME280;25997;50.214;19.354;2023-07-31T09:57:21;97572.94;;;22.82;40.67
40285;BME280;25997;50.214;19.354;2023-07-31T10:00:24;97564.28;;;22.44;40.88
40285;BME280;25997;50.214;19.354;2023-07-31T10:03:29;97564.28;;;22.74;38.89
40285;BME280;25997;50.214;19.354;2023-07-31T10:06:36;97557.53;;;22.90;39.90
40285;BME280;25997;50.214;19.354;2023-07-31T10:09:39;97559.53;;;22.84;40.77
40285;BME280;25997;50.214;19.354;2023-07-31T10:12:43;97544.25;;;23.15;40.00
40285;BME280;25997;50.214;19.354;2023-07-31T10:15:47;97554.78;;;22.64;40.81
40285;BME280;25997;50.214;19.354;2023-07-31T10:18:50;97559.53;;;22.84;40.18
40285;BME280;25997;50.214;19.354;2023-07-31T10:21:55;97541.94;;;23.03;38.81
40285;BME280;25997;50.214;19.354;2023-07-31T10:25:00;97547.09;;;22.81;39.53
40285;BME280;25997;50.214;19.354;2023-07-31T10:28:03;97554.19;;;22.82;40.41
40285;BME280;25997;50.214;19.354;2023-07-31T10:31:06;97550.47;;;22.59;39.78
40285;BME280;25997;50.214;19.354;2023-07-31T10:34:09;97546.22;;;22.81;39.91
40285;BME280;25997;50.214;19.354;2023-07-31T10:37:24;97536.81;;;22.68;38.77
40285;BME280;25997;50.214;19.354;2023-07-31T10:40:27;97545.94;;;22.61;38.81
40285;BME280;25997;50.214;19.354;2023-07-31T10:43:32;97530.88;;;22.26;39.54
40285;BME280;25997;50.214;19.354;2023-07-31T10:46:36;97531.50;;;22.96;38.22
40285;BME280;25997;50.214;19.354;2023-07-31T10:49:39;97530.06;;;23.66;38.82
40285;BME280;25997;50.214;19.354;2023-07-31T10:52:44;97521.19;;;23.90;35.88
40285;BME280;25997;50.214;19.354;2023-07-31T10:55:49;97525.22;;;24.51;37.15
40285;BME280;25997;50.214;19.354;2023-07-31T10:59:00;97521.41;;;24.56;33.54
40285;BME280;25997;50.214;19.354;2023-07-31T11:02:05;97525.59;;;25.10;34.22
40285;BME280;25997;50.214;19.354;2023-07-31T11:05:10;97525.72;;;24.60;34.67
40285;BME280;25997;50.214;19.354;2023-07-31T11:08:15;97527.03;;;25.40;35.81
40285;BME280;25997;50.214;19.354;2023-07-31T11:11:19;97518.53;;;25.29;34.77
40285;BME280;25997;50.214;19.354;2023-07-31T11:14:22;97506.75;;;25.31;34.50
40285;BME280;25997;50.214;19.354;2023-07-31T11:17:25;97513.03;;;25.73;34.61
40285;BME280;25997;50.214;19.354;2023-07-31T11:20:29;97498.38;;;25.60;34.32
40285;BME280;25997;50.214;19.354;2023-07-31T11:23:33;97512.06;;;25.96;34.62
40285;BME280;25997;50.214;19.354;2023-07-31T11:26:36;97513.75;;;26.19;35.06
40285;BME280;25997;50.214;19.354;2023-07-31T11:29:38;97506.78;;;25.53;34.31
40285;BME280;25997;50.214;19.354;2023-07-31T11:32:41;97507.03;;;25.03;34.30
40285;BME280;25997;50.214;19.354;2023-07-31T11:35:44;97503.94;;;25.56;34.77
40285;BME280;25997;50.214;19.354;2023-07-31T11:38:49;97507.66;;;26.15;34.23
40285;BME280;25997;50.214;19.354;2023-07-31T11:41:51;97497.22;;;26.47;33.47
40285;BME280;25997;50.214;19.354;2023-07-31T11:44:54;97509.84;;;26.65;33.96
40285;BME280;25997;50.214;19.354;2023-07-31T11:47:56;97507.16;;;26.26;32.69
40285;BME280;25997;50.214;19.354;2023-07-31T11:51:00;97503.97;;;25.96;33.28
40285;BME280;25997;50.214;19.354;2023-07-31T11:54:05;97497.47;;;26.22;33.40
40285;BME280;25997;50.214;19.354;2023-07-31T11:57:08;97495.91;;;25.76;33.98
40285;BME280;25997;50.214;19.354;2023-07-31T12:00:12;97486.34;;;25.89;32.51
40285;BME280;25997;50.214;19.354;2023-07-31T12:03:15;97485.28;;;25.73;31.72
40285;BME280;25997;50.214;19.354;2023-07-31T12:06:18;97492.69;;;25.68;33.50
40285;BME280;25997;50.214;19.354;2023-07-31T12:09:23;97489.44;;;26.00;33.08
40285;BME280;25997;50.214;19.354;2023-07-31T12:12:27;97491.75;;;26.48;30.88
40285;BME280;25997;50.214;19.354;2023-07-31T12:15:34;97472.28;;;26.62;31.44
40285;BME280;25997;50.214;19.354;2023-07-31T12:18:37;97465.00;;;26.64;31.90
40285;BME280;25997;50.214;19.354;2023-07-31T12:21:40;97478.03;;;27.10;30.13
40285;BME280;25997;50.214;19.354;2023-07-31T12:24:44;97460.13;;;26.72;30.10
40285;BME280;25997;50.214;19.354;2023-07-31T12:27:47;97455.09;;;26.83;31.05
40285;BME280;25997;50.214;19.354;2023-07-31T12:30:49;97448.19;;;26.77;31.07
40285;BME280;25997;50.214;19.354;2023-07-31T12:33:52;97447.13;;;27.17;30.10
40285;BME280;25997;50.214;19.354;2023-07-31T12:36:54;97440.44;;;26.88;29.67
40285;BME280;25997;50.214;19.354;2023-07-31T12:39:58;97448.56;;;27.05;29.10
40285;BME280;25997;50.214;19.354;2023-07-31T12:43:04;97452.75;;;27.12;30.14
40285;BME280;25997;50.214;19.354;2023-07-31T12:46:08;97442.88;;;27.30;30.26
40285;BME280;25997;50.214;19.354;2023-07-31T12:49:11;97441.00;;;26.39;30.72
40285;BME280;25997;50.214;19.354;2023-07-31T12:52:13;97432.81;;;25.83;31.03
40285;BME280;25997;50.214;19.354;2023-07-31T12:55:17;97424.06;;;25.78;31.62
40285;BME280;25997;50.214;19.354;2023-07-31T12:58:20;97427.19;;;25.49;31.90
40285;BME280;25997;50.214;19.354;2023-07-31T13:01:22;97428.00;;;25.71;31.30
40285;BME280;25997;50.214;19.354;2023-07-31T13:04:25;97424.50;;;26.84;31.38
40285;BME280;25997;50.214;19.354;2023-07-31T13:07:27;97422.97;;;27.33;30.63
40285;BME280;25997;50.214;19.354;2023-07-31T13:10:31;97423.59;;;27.02;29.92
40285;BME280;25997;50.214;19.354;2023-07-31T13:13:33;97427.72;;;26.73;29.88
40285;BME280;25997;50.214;19.354;2023-07-31T13:16:36;97418.91;;;27.05;29.77
40285;BME280;25997;50.214;19.354;2023-07-31T13:19:38;97421.34;;;26.93;30.08
40285;BME280;25997;50.214;19.354;2023-07-31T13:22:40;97420.03;;;27.20;29.49
40285;BME280;25997;50.214;19.354;2023-07-31T13:25:44;97405.28;;;27.44;29.66
40285;BME280;25997;50.214;19.354;2023-07-31T13:28:47;97411.81;;;26.86;29.71
40285;BME280;25997;50.214;19.354;2023-07-31T13:31:49;97411.16;;;26.43;30.75
40285;BME280;25997;50.214;19.354;2023-07-31T13:34:51;97404.38;;;26.16;30.67
40285;BME280;25997;50.214;19.354;2023-07-31T13:37:54;97401.69;;;25.78;31.11
40285;BME280;25997;50.214;19.354;2023-07-31T13:40:58;97397.91;;;25.82;31.16
40285;BME280;25997;50.214;19.354;2023-07-31T13:44:00;97401.81;;;25.54;31.77
40285;BME280;25997;50.214;19.354;2023-07-31T13:47:03;97397.44;;;25.72;31.44
40285;BME280;25997;50.214;19.354;2023-07-31T13:50:06;97393.53;;;25.79;31.49
40285;BME280;25997;50.214;19.354;2023-07-31T13:53:08;97392.34;;;25.66;31.15
40285;BME280;25997;50.214;19.354;2023-07-31T13:56:12;97388.56;;;26.66;31.44
40285;BME280;25997;50.214;19.354;2023-07-31T13:59:14;97395.81;;;27.19;30.50
40285;BME280;25997;50.214;19.354;2023-07-31T14:02:17;97388.66;;;26.82;29.64
40285;BME280;25997;50.214;19.354;2023-07-31T14:05:20;97379.22;;;26.55;30.18
40285;BME280;25997;50.214;19.354;2023-07-31T14:08:22;97382.50;;;25.85;31.11
40285;BME280;25997;50.214;19.354;2023-07-31T14:11:26;97386.97;;;25.66;31.62
40285;BME280;25997;50.214;19.354;2023-07-31T14:14:29;97382.00;;;25.96;31.29
40285;BME280;25997;50.214;19.354;2023-07-31T14:17:31;97382.34;;;26.27;31.76
40285;BME280;25997;50.214;19.354;2023-07-31T14:20:33;97380.38;;;26.12;31.48
40285;BME280;25997;50.214;19.354;2023-07-31T14:23:36;97380.16;;;25.37;31.35
40285;BME280;25997;50.214;19.354;2023-07-31T14:26:40;97373.09;;;24.71;32.36
40285;BME280;25997;50.214;19.354;2023-07-31T14:29:42;97372.47;;;24.43;32.76
40285;BME280;25997;50.214;19.354;2023-07-31T14:32:44;97375.22;;;24.42;33.51
40285;BME280;25997;50.214;19.354;2023-07-31T14:35:47;97368.25;;;24.59;33.44
40285;BME280;25997;50.214;19.354;2023-07-31T14:38:49;97369.34;;;24.54;33.88
40285;BME280;25997;50.214;19.354;2023-07-31T14:41:53;97376.28;;;24.81;32.99
40285;BME280;25997;50.214;19.354;2023-07-31T14:44:55;97379.34;;;24.93;32.87
40285;BME280;25997;50.214;19.354;2023-07-31T14:47:58;97357.50;;;24.59;33.04
40285;BME280;25997;50.214;19.354;2023-07-31T14:51:00;97369.97;;;24.39;33.81
40285;BME280;25997;50.214;19.354;2023-07-31T14:54:03;97366.72;;;24.29;34.11
40285;BME280;25997;50.214;19.354;2023-07-31T14:57:08;97362.97;;;24.11;33.28
40285;BME280;25997;50.214;19.354;2023-07-31T15:00:11;97359.78;;;23.79;34.23
40285;BME280;25997;50.214;19.354;2023-07-31T15:03:14;97355.66;;;23.69;34.72
40285;BME280;25997;50.214;19.354;2023-07-31T15:06:16;97352.88;;;23.22;34.99
40285;BME280;25997;50.214;19.354;2023-07-31T15:09:19;97357.41;;;23.20;35.14
40285;BME280;25997;50.214;19.354;2023-07-31T15:12:22;97351.69;;;23.05;35.50
40285;BME280;25997;50.214;19.354;2023-07-31T15:15:25;97359.97;;;22.72;35.23
40285;BME280;25997;50.214;19.354;2023-07-31T15:18:27;97349.25;;;22.45;35.39
40285;BME280;25997;50.214;19.354;2023-07-31T15:21:30;97362.31;;;22.54;35.56
40285;BME280;25997;50.214;19.354;2023-07-31T15:24:32;97353.28;;;22.58;35.48
40285;BME280;25997;50.214;19.354;2023-07-31T15:27:36;97352.56;;;22.53;36.36
40285;BME280;25997;50.214;19.354;2023-07-31T15:30:38;97352.41;;;22.30;36.58
40285;BME280;25997;50.214;19.354;2023-07-31T15:33:41;97347.44;;;22.45;36.36
40285;BME280;25997;50.214;19.354;2023-07-31T15:36:43;97344.66;;;23.28;35.85
40285;BME280;25997;50.214;19.354;2023-07-31T15:39:46;97343.63;;;24.25;34.29
40285;BME280;25997;50.214;19.354;2023-07-31T15:42:49;97337.75;;;24.82;33.62
40285;BME280;25997;50.214;19.354;2023-07-31T15:45:52;97340.97;;;25.32;33.17
40285;BME280;25997;50.214;19.354;2023-07-31T15:48:54;97327.78;;;25.66;33.25
40285;BME280;25997;50.214;19.354;2023-07-31T15:51:56;97337.59;;;26.06;32.83
40285;BME280;25997;50.214;19.354;2023-07-31T15:54:59;97334.34;;;26.18;33.07
40285;BME280;25997;50.214;19.354;2023-07-31T15:58:03;97327.63;;;26.26;32.98